aviador You're here:

KDDC Decoded Metar

DODGE CITY in KS, USA
Report Time2017-09-22 10:52:00
UTC Time2017-09-22 11:40:12
Flight Rules vfr VFR
Wind170° at 16 kt
W.Decomp.*RWY 14: 14.8 kt HW 6.0 kt RCW
RWY 20: 12.6 kt HW 9.9 kt LCW
W.Rank170° ranks 1
Current wind is above 170° avg. (13.6)
Visibility9999 m
Phenomena:N/A
Clouds:Few 120 Hf
Expected CloudBase > 2,400 ft AGL from Temp-Dew spread
CeilingNone
Temp24°C (ISA +14)
Dew Point18°C (69% RH)
AAT21.0°C
QNH1010 hPa
Density Alt4,606 ft
Elevation2,589 ft
Report Wrong Elevation
Raw Report
KDDC 221052Z AUTO 17016KT 10SM FEW120 24/18 A2984 RMK AO2 SLP066
T02390178=

Extra information for KDDC:More info

Metar Taf Metar & Taf Last 4 Metars F.Rules Stats Wind Profile Meteogram Temp Stats Airport Information Weather charts Add Link Nearby VenuesMetar ALERT Operation Metar Decoded Social comments

AIRNAV info for KDDC